sensor_id;sensor_type;location;lat;lon;timestamp;P1;durP1;ratioP1;P2;durP2;ratioP2
75937;SDS011;64615;32.062;34.834;2022-12-07T00:01:28;38.17;;;19.05;;
75937;SDS011;64615;32.062;34.834;2022-12-07T00:03:59;39.00;;;18.67;;
75937;SDS011;64615;32.062;34.834;2022-12-07T00:06:29;36.85;;;19.05;;
75937;SDS011;64615;32.062;34.834;2022-12-07T00:09:02;39.95;;;19.45;;
75937;SDS011;64615;32.062;34.834;2022-12-07T00:11:32;38.83;;;18.70;;
75937;SDS011;64615;32.062;34.834;2022-12-07T00:14:00;40.05;;;20.58;;
75937;SDS011;64615;32.062;34.834;2022-12-07T00:16:29;36.47;;;19.85;;
75937;SDS011;64615;32.062;34.834;2022-12-07T00:21:23;37.65;;;19.23;;
75937;SDS011;64615;32.062;34.834;2022-12-07T00:26:27;35.45;;;18.23;;
75937;SDS011;64615;32.062;34.834;2022-12-07T00:28:55;36.38;;;19.08;;
75937;SDS011;64615;32.062;34.834;2022-12-07T00:31:26;34.83;;;18.33;;
75937;SDS011;64615;32.062;34.834;2022-12-07T00:33:54;32.63;;;18.33;;
75937;SDS011;64615;32.062;34.834;2022-12-07T00:36:22;31.95;;;16.05;;
75937;SDS011;64615;32.062;34.834;2022-12-07T00:38:48;36.92;;;17.55;;
75937;SDS011;64615;32.062;34.834;2022-12-07T00:41:15;30.10;;;17.60;;
75937;SDS011;64615;32.062;34.834;2022-12-07T00:43:45;30.65;;;16.17;;
75937;SDS011;64615;32.062;34.834;2022-12-07T00:46:12;31.73;;;16.88;;
75937;SDS011;64615;32.062;34.834;2022-12-07T00:48:38;30.77;;;15.77;;
75937;SDS011;64615;32.062;34.834;2022-12-07T00:51:05;31.52;;;16.35;;
75937;SDS011;64615;32.062;34.834;2022-12-07T00:53:31;27.17;;;16.23;;
75937;SDS011;64615;32.062;34.834;2022-12-07T00:56:10;30.05;;;15.77;;
75937;SDS011;64615;32.062;34.834;2022-12-07T00:58:38;29.77;;;14.57;;
75937;SDS011;64615;32.062;34.834;2022-12-07T01:01:04;28.30;;;14.63;;
75937;SDS011;64615;32.062;34.834;2022-12-07T01:03:31;28.77;;;15.10;;
75937;SDS011;64615;32.062;34.834;2022-12-07T01:05:57;27.83;;;14.77;;
75937;SDS011;64615;32.062;34.834;2022-12-07T01:08:24;27.25;;;15.70;;
75937;SDS011;64615;32.062;34.834;2022-12-07T01:11:02;24.85;;;14.45;;
75937;SDS011;64615;32.062;34.834;2022-12-07T01:13:29;26.88;;;14.57;;
75937;SDS011;64615;32.062;34.834;2022-12-07T01:15:57;26.42;;;13.10;;
75937;SDS011;64615;32.062;34.834;2022-12-07T01:18:25;24.88;;;13.88;;
75937;SDS011;64615;32.062;34.834;2022-12-07T01:23:40;23.17;;;14.02;;
75937;SDS011;64615;32.062;34.834;2022-12-07T01:26:08;24.48;;;13.63;;
75937;SDS011;64615;32.062;34.834;2022-12-07T01:28:36;24.00;;;13.50;;
75937;SDS011;64615;32.062;34.834;2022-12-07T01:31:04;22.30;;;13.88;;
75937;SDS011;64615;32.062;34.834;2022-12-07T01:33:32;23.23;;;12.90;;
75937;SDS011;64615;32.062;34.834;2022-12-07T01:36:04;25.25;;;13.90;;
75937;SDS011;64615;32.062;34.834;2022-12-07T01:38:31;23.52;;;13.00;;
75937;SDS011;64615;32.062;34.834;2022-12-07T01:40:58;23.15;;;13.65;;
75937;SDS011;64615;32.062;34.834;2022-12-07T01:43:25;22.02;;;12.80;;
75937;SDS011;64615;32.062;34.834;2022-12-07T01:45:53;24.42;;;13.43;;
75937;SDS011;64615;32.062;34.834;2022-12-07T01:48:24;25.52;;;13.55;;
75937;SDS011;64615;32.062;34.834;2022-12-07T01:50:56;20.77;;;12.75;;
75937;SDS011;64615;32.062;34.834;2022-12-07T01:53:25;20.73;;;13.07;;
75937;SDS011;64615;32.062;34.834;2022-12-07T01:55:55;23.17;;;13.45;;
75937;SDS011;64615;32.062;34.834;2022-12-07T01:58:21;23.17;;;12.38;;
75937;SDS011;64615;32.062;34.834;2022-12-07T02:00:48;23.08;;;13.68;;
75937;SDS011;64615;32.062;34.834;2022-12-07T02:06:06;21.33;;;12.98;;
75937;SDS011;64615;32.062;34.834;2022-12-07T02:08:33;24.23;;;13.50;;
75937;SDS011;64615;32.062;34.834;2022-12-07T02:11:00;24.38;;;13.48;;
75937;SDS011;64615;32.062;34.834;2022-12-07T02:13:29;25.92;;;13.77;;
75937;SDS011;64615;32.062;34.834;2022-12-07T02:18:47;23.77;;;13.50;;
75937;SDS011;64615;32.062;34.834;2022-12-07T02:21:29;23.65;;;13.45;;
75937;SDS011;64615;32.062;34.834;2022-12-07T02:30:06;24.25;;;14.05;;
75937;SDS011;64615;32.062;34.834;2022-12-07T02:37:37;25.15;;;14.10;;
75937;SDS011;64615;32.062;34.834;2022-12-07T02:40:27;22.55;;;12.82;;
75937;SDS011;64615;32.062;34.834;2022-12-07T02:42:57;22.08;;;13.07;;
75937;SDS011;64615;32.062;34.834;2022-12-07T02:45:38;26.05;;;12.65;;
75937;SDS011;64615;32.062;34.834;2022-12-07T02:48:06;28.30;;;12.55;;
75937;SDS011;64615;32.062;34.834;2022-12-07T02:50:34;21.45;;;12.48;;
75937;SDS011;64615;32.062;34.834;2022-12-07T02:52:59;22.95;;;12.90;;
75937;SDS011;64615;32.062;34.834;2022-12-07T02:55:29;22.52;;;12.63;;
75937;SDS011;64615;32.062;34.834;2022-12-07T02:58:08;20.48;;;12.15;;
75937;SDS011;64615;32.062;34.834;2022-12-07T03:01:40;18.38;;;10.57;;
75937;SDS011;64615;32.062;34.834;2022-12-07T03:04:17;22.55;;;12.05;;
75937;SDS011;64615;32.062;34.834;2022-12-07T03:06:49;19.58;;;11.52;;
75937;SDS011;64615;32.062;34.834;2022-12-07T03:09:20;20.48;;;11.88;;
75937;SDS011;64615;32.062;34.834;2022-12-07T03:12:16;20.80;;;11.93;;
75937;SDS011;64615;32.062;34.834;2022-12-07T03:14:53;17.25;;;11.07;;
75937;SDS011;64615;32.062;34.834;2022-12-07T03:17:26;19.80;;;10.63;;
75937;SDS011;64615;32.062;34.834;2022-12-07T03:19:52;18.60;;;10.52;;
75937;SDS011;64615;32.062;34.834;2022-12-07T03:22:23;23.20;;;11.38;;
75937;SDS011;64615;32.062;34.834;2022-12-07T03:24:54;20.67;;;12.07;;
75937;SDS011;64615;32.062;34.834;2022-12-07T03:29:57;17.42;;;10.63;;
75937;SDS011;64615;32.062;34.834;2022-12-07T03:32:37;17.27;;;10.65;;
75937;SDS011;64615;32.062;34.834;2022-12-07T03:35:17;20.45;;;11.05;;
75937;SDS011;64615;32.062;34.834;2022-12-07T03:37:56;18.05;;;10.32;;
75937;SDS011;64615;32.062;34.834;2022-12-07T03:42:57;16.27;;;10.57;;
75937;SDS011;64615;32.062;34.834;2022-12-07T03:45:31;21.40;;;10.18;;
75937;SDS011;64615;32.062;34.834;2022-12-07T03:48:06;20.67;;;10.45;;
75937;SDS011;64615;32.062;34.834;2022-12-07T03:50:57;23.05;;;11.32;;
75937;SDS011;64615;32.062;34.834;2022-12-07T03:53:31;24.60;;;11.13;;
75937;SDS011;64615;32.062;34.834;2022-12-07T03:56:19;24.73;;;10.52;;
75937;SDS011;64615;32.062;34.834;2022-12-07T03:58:47;33.78;;;10.35;;
75937;SDS011;64615;32.062;34.834;2022-12-07T04:01:13;25.08;;;10.55;;
75937;SDS011;64615;32.062;34.834;2022-12-07T04:03:39;21.92;;;9.63;;
75937;SDS011;64615;32.062;34.834;2022-12-07T04:06:05;18.60;;;9.15;;
75937;SDS011;64615;32.062;34.834;2022-12-07T04:08:31;17.45;;;9.90;;
75937;SDS011;64615;32.062;34.834;2022-12-07T04:10:56;19.63;;;8.80;;
75937;SDS011;64615;32.062;34.834;2022-12-07T04:13:22;16.50;;;9.18;;
75937;SDS011;64615;32.062;34.834;2022-12-07T04:15:47;16.05;;;8.82;;
75937;SDS011;64615;32.062;34.834;2022-12-07T04:18:13;21.25;;;9.27;;
75937;SDS011;64615;32.062;34.834;2022-12-07T04:20:39;19.90;;;8.55;;
75937;SDS011;64615;32.062;34.834;2022-12-07T04:23:04;16.55;;;8.40;;
75937;SDS011;64615;32.062;34.834;2022-12-07T04:25:30;16.50;;;8.18;;
75937;SDS011;64615;32.062;34.834;2022-12-07T04:27:56;16.92;;;7.90;;
75937;SDS011;64615;32.062;34.834;2022-12-07T04:30:21;16.67;;;8.10;;
75937;SDS011;64615;32.062;34.834;2022-12-07T04:32:47;20.30;;;9.52;;
75937;SDS011;64615;32.062;34.834;2022-12-07T04:35:12;20.48;;;10.55;;
75937;SDS011;64615;32.062;34.834;2022-12-07T04:37:38;22.10;;;11.25;;
75937;SDS011;64615;32.062;34.834;2022-12-07T04:40:05;25.25;;;10.90;;
75937;SDS011;64615;32.062;34.834;2022-12-07T04:42:33;25.65;;;10.90;;
75937;SDS011;64615;32.062;34.834;2022-12-07T04:44:58;21.35;;;10.13;;
75937;SDS011;64615;32.062;34.834;2022-12-07T04:47:24;26.38;;;9.35;;
75937;SDS011;64615;32.062;34.834;2022-12-07T04:49:50;29.80;;;10.57;;
75937;SDS011;64615;32.062;34.834;2022-12-07T04:52:15;30.60;;;9.98;;
75937;SDS011;64615;32.062;34.834;2022-12-07T04:54:41;20.73;;;9.55;;
75937;SDS011;64615;32.062;34.834;2022-12-07T04:57:06;26.83;;;9.82;;
75937;SDS011;64615;32.062;34.834;2022-12-07T04:59:32;29.73;;;9.30;;
75937;SDS011;64615;32.062;34.834;2022-12-07T05:01:58;19.02;;;8.60;;
75937;SDS011;64615;32.062;34.834;2022-12-07T05:04:23;22.95;;;9.45;;
75937;SDS011;64615;32.062;34.834;2022-12-07T05:06:49;23.60;;;9.05;;
75937;SDS011;64615;32.062;34.834;2022-12-07T05:09:14;20.65;;;8.13;;
75937;SDS011;64615;32.062;34.834;2022-12-07T05:11:40;20.35;;;8.85;;
75937;SDS011;64615;32.062;34.834;2022-12-07T05:14:11;20.10;;;9.13;;
75937;SDS011;64615;32.062;34.834;2022-12-07T05:16:39;18.33;;;7.78;;
75937;SDS011;64615;32.062;34.834;2022-12-07T05:19:06;22.15;;;8.57;;
75937;SDS011;64615;32.062;34.834;2022-12-07T05:21:32;21.98;;;8.80;;
75937;SDS011;64615;32.062;34.834;2022-12-07T05:23:58;27.10;;;9.00;;
75937;SDS011;64615;32.062;34.834;2022-12-07T05:26:23;26.02;;;8.63;;
75937;SDS011;64615;32.062;34.834;2022-12-07T05:28:53;22.77;;;9.20;;
75937;SDS011;64615;32.062;34.834;2022-12-07T05:31:20;23.23;;;8.80;;
75937;SDS011;64615;32.062;34.834;2022-12-07T05:33:46;25.80;;;8.70;;
75937;SDS011;64615;32.062;34.834;2022-12-07T05:36:12;45.75;;;8.25;;
75937;SDS011;64615;32.062;34.834;2022-12-07T05:38:38;21.23;;;9.10;;
75937;SDS011;64615;32.062;34.834;2022-12-07T05:41:04;31.98;;;8.18;;
75937;SDS011;64615;32.062;34.834;2022-12-07T05:43:31;25.55;;;7.78;;
75937;SDS011;64615;32.062;34.834;2022-12-07T05:45:58;36.47;;;9.32;;
75937;SDS011;64615;32.062;34.834;2022-12-07T05:48:24;30.23;;;7.80;;
75937;SDS011;64615;32.062;34.834;2022-12-07T05:50:51;23.80;;;8.55;;
75937;SDS011;64615;32.062;34.834;2022-12-07T05:53:17;30.48;;;9.55;;
75937;SDS011;64615;32.062;34.834;2022-12-07T05:55:43;28.00;;;8.05;;
75937;SDS011;64615;32.062;34.834;2022-12-07T05:58:09;27.02;;;7.80;;
75937;SDS011;64615;32.062;34.834;2022-12-07T06:00:57;17.48;;;6.15;;
75937;SDS011;64615;32.062;34.834;2022-12-07T06:03:23;20.38;;;7.05;;
75937;SDS011;64615;32.062;34.834;2022-12-07T06:05:48;22.30;;;8.00;;
75937;SDS011;64615;32.062;34.834;2022-12-07T06:08:14;20.45;;;7.13;;
75937;SDS011;64615;32.062;34.834;2022-12-07T06:10:40;18.50;;;7.15;;
75937;SDS011;64615;32.062;34.834;2022-12-07T06:13:07;18.75;;;6.72;;
75937;SDS011;64615;32.062;34.834;2022-12-07T06:15:36;16.25;;;6.88;;
75937;SDS011;64615;32.062;34.834;2022-12-07T06:18:02;18.83;;;6.80;;
75937;SDS011;64615;32.062;34.834;2022-12-07T06:20:28;14.15;;;6.20;;
75937;SDS011;64615;32.062;34.834;2022-12-07T06:22:53;16.33;;;6.20;;
75937;SDS011;64615;32.062;34.834;2022-12-07T06:25:19;19.42;;;7.35;;
75937;SDS011;64615;32.062;34.834;2022-12-07T06:27:45;19.00;;;8.02;;
75937;SDS011;64615;32.062;34.834;2022-12-07T06:30:10;15.32;;;7.75;;
75937;SDS011;64615;32.062;34.834;2022-12-07T06:32:36;15.68;;;6.90;;
75937;SDS011;64615;32.062;34.834;2022-12-07T06:35:02;17.65;;;6.57;;
75937;SDS011;64615;32.062;34.834;2022-12-07T06:37:28;14.52;;;7.07;;
75937;SDS011;64615;32.062;34.834;2022-12-07T06:39:54;15.85;;;6.90;;
75937;SDS011;64615;32.062;34.834;2022-12-07T06:42:20;16.25;;;7.07;;
75937;SDS011;64615;32.062;34.834;2022-12-07T06:44:45;10.93;;;6.68;;
75937;SDS011;64615;32.062;34.834;2022-12-07T06:47:11;15.35;;;6.97;;
75937;SDS011;64615;32.062;34.834;2022-12-07T06:49:37;13.85;;;7.13;;
75937;SDS011;64615;32.062;34.834;2022-12-07T06:52:03;13.00;;;6.97;;
75937;SDS011;64615;32.062;34.834;2022-12-07T06:54:29;13.25;;;6.15;;
75937;SDS011;64615;32.062;34.834;2022-12-07T06:56:55;13.38;;;6.80;;
75937;SDS011;64615;32.062;34.834;2022-12-07T06:59:21;14.93;;;7.15;;
75937;SDS011;64615;32.062;34.834;2022-12-07T07:01:46;13.32;;;6.15;;
75937;SDS011;64615;32.062;34.834;2022-12-07T07:04:12;15.70;;;6.80;;
75937;SDS011;64615;32.062;34.834;2022-12-07T07:06:38;15.48;;;6.15;;
75937;SDS011;64615;32.062;34.834;2022-12-07T07:09:03;13.65;;;6.57;;
75937;SDS011;64615;32.062;34.834;2022-12-07T07:11:29;13.85;;;6.50;;
75937;SDS011;64615;32.062;34.834;2022-12-07T07:13:55;14.00;;;5.97;;
75937;SDS011;64615;32.062;34.834;2022-12-07T07:16:22;14.13;;;5.65;;
75937;SDS011;64615;32.062;34.834;2022-12-07T07:18:48;11.95;;;6.15;;
75937;SDS011;64615;32.062;34.834;2022-12-07T07:21:14;12.82;;;6.30;;
75937;SDS011;64615;32.062;34.834;2022-12-07T07:23:40;10.73;;;5.45;;
75937;SDS011;64615;32.062;34.834;2022-12-07T07:26:05;13.68;;;5.78;;
75937;SDS011;64615;32.062;34.834;2022-12-07T07:28:31;10.45;;;5.60;;
75937;SDS011;64615;32.062;34.834;2022-12-07T07:30:57;11.68;;;5.85;;
75937;SDS011;64615;32.062;34.834;2022-12-07T07:33:23;10.98;;;5.72;;
75937;SDS011;64615;32.062;34.834;2022-12-07T07:35:48;12.30;;;5.45;;
75937;SDS011;64615;32.062;34.834;2022-12-07T07:38:14;14.73;;;5.65;;
75937;SDS011;64615;32.062;34.834;2022-12-07T07:40:40;16.30;;;5.97;;
75937;SDS011;64615;32.062;34.834;2022-12-07T07:43:06;12.13;;;5.70;;
75937;SDS011;64615;32.062;34.834;2022-12-07T07:45:32;16.17;;;5.50;;
75937;SDS011;64615;32.062;34.834;2022-12-07T07:47:57;11.82;;;5.45;;
75937;SDS011;64615;32.062;34.834;2022-12-07T07:50:23;17.10;;;5.50;;
75937;SDS011;64615;32.062;34.834;2022-12-07T07:52:49;10.50;;;5.53;;
75937;SDS011;64615;32.062;34.834;2022-12-07T07:55:16;11.48;;;5.03;;
75937;SDS011;64615;32.062;34.834;2022-12-07T07:57:42;9.77;;;5.05;;
75937;SDS011;64615;32.062;34.834;2022-12-07T08:00:08;11.70;;;5.07;;
75937;SDS011;64615;32.062;34.834;2022-12-07T08:02:37;13.75;;;5.43;;
75937;SDS011;64615;32.062;34.834;2022-12-07T08:05:03;11.63;;;5.53;;
75937;SDS011;64615;32.062;34.834;2022-12-07T08:07:29;13.80;;;6.00;;
75937;SDS011;64615;32.062;34.834;2022-12-07T08:09:55;11.38;;;5.57;;
75937;SDS011;64615;32.062;34.834;2022-12-07T08:12:20;10.40;;;5.65;;
75937;SDS011;64615;32.062;34.834;2022-12-07T08:14:46;12.52;;;5.80;;
75937;SDS011;64615;32.062;34.834;2022-12-07T08:17:12;19.70;;;6.00;;
75937;SDS011;64615;32.062;34.834;2022-12-07T08:19:37;12.65;;;5.30;;
75937;SDS011;64615;32.062;34.834;2022-12-07T08:22:03;12.45;;;5.32;;
75937;SDS011;64615;32.062;34.834;2022-12-07T08:24:29;9.45;;;5.22;;
75937;SDS011;64615;32.062;34.834;2022-12-07T08:26:55;17.83;;;5.72;;
75937;SDS011;64615;32.062;34.834;2022-12-07T08:29:21;15.10;;;6.50;;
75937;SDS011;64615;32.062;34.834;2022-12-07T08:31:46;13.85;;;5.85;;
75937;SDS011;64615;32.062;34.834;2022-12-07T08:34:12;11.70;;;5.25;;
75937;SDS011;64615;32.062;34.834;2022-12-07T08:36:39;17.08;;;5.90;;
75937;SDS011;64615;32.062;34.834;2022-12-07T08:39:04;14.40;;;6.05;;
75937;SDS011;64615;32.062;34.834;2022-12-07T08:41:31;16.98;;;5.45;;
75937;SDS011;64615;32.062;34.834;2022-12-07T08:43:57;16.02;;;6.30;;
75937;SDS011;64615;32.062;34.834;2022-12-07T08:51:38;13.73;;;4.97;;
75937;SDS011;64615;32.062;34.834;2022-12-07T08:54:06;11.40;;;5.20;;
75937;SDS011;64615;32.062;34.834;2022-12-07T08:56:35;15.77;;;5.47;;
75937;SDS011;64615;32.062;34.834;2022-12-07T08:59:01;10.63;;;5.65;;
75937;SDS011;64615;32.062;34.834;2022-12-07T09:01:28;13.50;;;5.88;;
75937;SDS011;64615;32.062;34.834;2022-12-07T09:03:53;13.48;;;6.07;;
75937;SDS011;64615;32.062;34.834;2022-12-07T09:06:19;15.18;;;5.88;;
75937;SDS011;64615;32.062;34.834;2022-12-07T09:08:46;15.05;;;6.05;;
75937;SDS011;64615;32.062;34.834;2022-12-07T09:11:15;12.57;;;5.90;;
75937;SDS011;64615;32.062;34.834;2022-12-07T09:13:40;11.00;;;5.90;;
75937;SDS011;64615;32.062;34.834;2022-12-07T09:16:06;10.65;;;5.35;;
75937;SDS011;64615;32.062;34.834;2022-12-07T09:18:32;15.43;;;5.90;;
75937;SDS011;64615;32.062;34.834;2022-12-07T09:20:57;16.63;;;5.90;;
75937;SDS011;64615;32.062;34.834;2022-12-07T09:23:23;16.20;;;6.05;;
75937;SDS011;64615;32.062;34.834;2022-12-07T09:25:49;12.52;;;6.28;;
75937;SDS011;64615;32.062;34.834;2022-12-07T09:28:14;13.95;;;6.40;;
75937;SDS011;64615;32.062;34.834;2022-12-07T09:30:49;10.70;;;5.43;;
75937;SDS011;64615;32.062;34.834;2022-12-07T09:33:15;15.15;;;6.43;;
75937;SDS011;64615;32.062;34.834;2022-12-07T09:35:45;15.98;;;6.25;;
75937;SDS011;64615;32.062;34.834;2022-12-07T09:38:11;13.98;;;6.68;;
75937;SDS011;64615;32.062;34.834;2022-12-07T09:40:37;15.48;;;6.78;;
75937;SDS011;64615;32.062;34.834;2022-12-07T09:43:03;16.63;;;7.43;;
75937;SDS011;64615;32.062;34.834;2022-12-07T09:45:35;13.25;;;6.85;;
75937;SDS011;64615;32.062;34.834;2022-12-07T09:48:02;14.20;;;6.53;;
75937;SDS011;64615;32.062;34.834;2022-12-07T09:50:29;15.77;;;7.72;;
75937;SDS011;64615;32.062;34.834;2022-12-07T09:52:58;14.48;;;7.18;;
75937;SDS011;64615;32.062;34.834;2022-12-07T09:55:33;24.80;;;6.95;;
75937;SDS011;64615;32.062;34.834;2022-12-07T09:58:01;16.65;;;6.45;;
75937;SDS011;64615;32.062;34.834;2022-12-07T10:00:28;14.45;;;6.50;;
75937;SDS011;64615;32.062;34.834;2022-12-07T10:02:55;18.58;;;6.28;;
75937;SDS011;64615;32.062;34.834;2022-12-07T10:07:51;15.30;;;6.00;;
75937;SDS011;64615;32.062;34.834;2022-12-07T10:10:24;16.50;;;5.82;;
75937;SDS011;64615;32.062;34.834;2022-12-07T10:12:56;18.45;;;5.97;;
75937;SDS011;64615;32.062;34.834;2022-12-07T10:18:25;12.10;;;5.95;;
75937;SDS011;64615;32.062;34.834;2022-12-07T10:21:00;11.00;;;5.40;;
75937;SDS011;64615;32.062;34.834;2022-12-07T10:23:36;13.70;;;5.18;;
75937;SDS011;64615;32.062;34.834;2022-12-07T10:26:19;17.00;;;5.72;;
75937;SDS011;64615;32.062;34.834;2022-12-07T10:28:46;12.50;;;4.78;;
75937;SDS011;64615;32.062;34.834;2022-12-07T10:31:17;14.18;;;5.30;;
75937;SDS011;64615;32.062;34.834;2022-12-07T10:38:47;11.32;;;5.20;;
75937;SDS011;64615;32.062;34.834;2022-12-07T10:41:16;11.52;;;5.10;;
75937;SDS011;64615;32.062;34.834;2022-12-07T10:43:49;11.30;;;5.40;;
75937;SDS011;64615;32.062;34.834;2022-12-07T10:46:26;11.35;;;4.70;;
75937;SDS011;64615;32.062;34.834;2022-12-07T11:04:18;13.88;;;5.03;;
75937;SDS011;64615;32.062;34.834;2022-12-07T11:06:54;10.35;;;5.03;;
75937;SDS011;64615;32.062;34.834;2022-12-07T11:09:54;15.35;;;5.57;;
75937;SDS011;64615;32.062;34.834;2022-12-07T11:12:47;20.58;;;5.53;;
75937;SDS011;64615;32.062;34.834;2022-12-07T11:23:49;30.52;;;6.53;;
75937;SDS011;64615;32.062;34.834;2022-12-07T11:35:24;19.88;;;6.05;;
75937;SDS011;64615;32.062;34.834;2022-12-07T11:38:15;23.52;;;5.85;;
75937;SDS011;64615;32.062;34.834;2022-12-07T11:40:46;21.52;;;5.90;;
75937;SDS011;64615;32.062;34.834;2022-12-07T11:43:27;21.20;;;5.82;;
75937;SDS011;64615;32.062;34.834;2022-12-07T11:46:03;15.77;;;5.50;;
75937;SDS011;64615;32.062;34.834;2022-12-07T11:51:06;23.02;;;6.47;;
75937;SDS011;64615;32.062;34.834;2022-12-07T11:53:39;18.85;;;5.05;;
75937;SDS011;64615;32.062;34.834;2022-12-07T11:56:14;17.92;;;5.70;;
75937;SDS011;64615;32.062;34.834;2022-12-07T12:03:45;14.55;;;4.95;;
75937;SDS011;64615;32.062;34.834;2022-12-07T12:06:13;17.65;;;5.10;;
75937;SDS011;64615;32.062;34.834;2022-12-07T12:08:43;13.80;;;4.55;;
75937;SDS011;64615;32.062;34.834;2022-12-07T12:14:14;16.05;;;5.18;;
75937;SDS011;64615;32.062;34.834;2022-12-07T12:19:43;14.63;;;5.55;;
75937;SDS011;64615;32.062;34.834;2022-12-07T12:22:41;16.73;;;5.60;;
75937;SDS011;64615;32.062;34.834;2022-12-07T12:25:21;9.57;;;4.63;;
75937;SDS011;64615;32.062;34.834;2022-12-07T12:27:47;11.70;;;4.57;;
75937;SDS011;64615;32.062;34.834;2022-12-07T12:30:49;16.88;;;5.10;;
75937;SDS011;64615;32.062;34.834;2022-12-07T12:33:19;10.75;;;4.20;;
75937;SDS011;64615;32.062;34.834;2022-12-07T12:35:46;16.27;;;5.05;;
75937;SDS011;64615;32.062;34.834;2022-12-07T12:38:51;10.27;;;4.50;;
75937;SDS011;64615;32.062;34.834;2022-12-07T12:47:00;12.27;;;4.40;;
75937;SDS011;64615;32.062;34.834;2022-12-07T12:54:21;9.95;;;4.50;;
75937;SDS011;64615;32.062;34.834;2022-12-07T13:01:53;11.95;;;4.28;;
75937;SDS011;64615;32.062;34.834;2022-12-07T13:04:23;9.98;;;4.13;;
75937;SDS011;64615;32.062;34.834;2022-12-07T13:06:52;8.90;;;3.65;;
75937;SDS011;64615;32.062;34.834;2022-12-07T13:09:25;10.43;;;3.78;;
75937;SDS011;64615;32.062;34.834;2022-12-07T13:11:58;13.07;;;4.68;;
75937;SDS011;64615;32.062;34.834;2022-12-07T13:14:40;9.25;;;4.13;;
75937;SDS011;64615;32.062;34.834;2022-12-07T13:22:49;17.25;;;4.70;;
75937;SDS011;64615;32.062;34.834;2022-12-07T13:27:44;10.40;;;4.10;;
75937;SDS011;64615;32.062;34.834;2022-12-07T13:30:26;7.50;;;3.80;;
75937;SDS011;64615;32.062;34.834;2022-12-07T13:32:55;12.85;;;3.70;;
75937;SDS011;64615;32.062;34.834;2022-12-07T13:35:29;10.70;;;4.10;;
75937;SDS011;64615;32.062;34.834;2022-12-07T13:38:14;11.45;;;4.10;;
75937;SDS011;64615;32.062;34.834;2022-12-07T13:46:17;11.40;;;4.40;;
75937;SDS011;64615;32.062;34.834;2022-12-07T13:48:47;10.82;;;4.35;;
75937;SDS011;64615;32.062;34.834;2022-12-07T13:51:18;8.23;;;3.90;;
75937;SDS011;64615;32.062;34.834;2022-12-07T13:53:47;10.82;;;3.97;;
75937;SDS011;64615;32.062;34.834;2022-12-07T13:56:13;13.57;;;4.10;;
75937;SDS011;64615;32.062;34.834;2022-12-07T13:58:40;8.07;;;3.88;;
75937;SDS011;64615;32.062;34.834;2022-12-07T14:01:06;7.47;;;4.18;;
75937;SDS011;64615;32.062;34.834;2022-12-07T14:03:33;15.02;;;4.30;;
75937;SDS011;64615;32.062;34.834;2022-12-07T14:06:46;8.35;;;4.70;;
75937;SDS011;64615;32.062;34.834;2022-12-07T14:09:06;9.63;;;3.95;;
75937;SDS011;64615;32.062;34.834;2022-12-07T14:11:33;8.07;;;3.88;;
75937;SDS011;64615;32.062;34.834;2022-12-07T14:13:59;9.88;;;4.10;;
75937;SDS011;64615;32.062;34.834;2022-12-07T14:16:31;9.50;;;3.90;;
75937;SDS011;64615;32.062;34.834;2022-12-07T14:19:00;8.35;;;3.88;;
75937;SDS011;64615;32.062;34.834;2022-12-07T14:21:29;15.50;;;4.28;;
75937;SDS011;64615;32.062;34.834;2022-12-07T14:26:38;9.68;;;3.70;;
75937;SDS011;64615;32.062;34.834;2022-12-07T14:31:53;8.30;;;4.15;;
75937;SDS011;64615;32.062;34.834;2022-12-07T14:34:23;8.10;;;3.28;;
75937;SDS011;64615;32.062;34.834;2022-12-07T14:36:49;8.57;;;3.50;;
75937;SDS011;64615;32.062;34.834;2022-12-07T14:39:15;9.20;;;3.92;;
75937;SDS011;64615;32.062;34.834;2022-12-07T14:41:40;13.35;;;3.63;;
75937;SDS011;64615;32.062;34.834;2022-12-07T14:44:15;17.05;;;4.22;;
75937;SDS011;64615;32.062;34.834;2022-12-07T14:46:42;15.10;;;3.33;;
75937;SDS011;64615;32.062;34.834;2022-12-07T14:49:08;13.25;;;3.53;;
75937;SDS011;64615;32.062;34.834;2022-12-07T14:51:33;8.98;;;3.38;;
75937;SDS011;64615;32.062;34.834;2022-12-07T14:54:03;18.77;;;3.75;;
75937;SDS011;64615;32.062;34.834;2022-12-07T14:56:30;8.80;;;3.50;;
75937;SDS011;64615;32.062;34.834;2022-12-07T14:58:56;24.10;;;4.07;;
75937;SDS011;64615;32.062;34.834;2022-12-07T15:01:22;26.55;;;4.22;;
75937;SDS011;64615;32.062;34.834;2022-12-07T15:03:48;34.40;;;5.03;;
75937;SDS011;64615;32.062;34.834;2022-12-07T15:06:14;25.95;;;4.40;;
75937;SDS011;64615;32.062;34.834;2022-12-07T15:08:40;30.50;;;4.60;;
75937;SDS011;64615;32.062;34.834;2022-12-07T15:11:08;25.08;;;4.22;;
75937;SDS011;64615;32.062;34.834;2022-12-07T15:13:37;18.20;;;4.35;;
75937;SDS011;64615;32.062;34.834;2022-12-07T15:16:21;16.40;;;4.95;;
75937;SDS011;64615;32.062;34.834;2022-12-07T15:18:47;18.17;;;4.72;;
75937;SDS011;64615;32.062;34.834;2022-12-07T15:21:13;22.85;;;4.75;;
75937;SDS011;64615;32.062;34.834;2022-12-07T15:23:40;17.55;;;5.20;;
75937;SDS011;64615;32.062;34.834;2022-12-07T15:26:06;16.65;;;4.55;;
75937;SDS011;64615;32.062;34.834;2022-12-07T15:28:33;15.75;;;4.72;;
75937;SDS011;64615;32.062;34.834;2022-12-07T15:30:59;12.25;;;3.92;;
75937;SDS011;64615;32.062;34.834;2022-12-07T15:33:25;11.77;;;4.85;;
75937;SDS011;64615;32.062;34.834;2022-12-07T15:35:50;12.88;;;4.00;;
75937;SDS011;64615;32.062;34.834;2022-12-07T15:38:16;11.35;;;4.15;;
75937;SDS011;64615;32.062;34.834;2022-12-07T15:40:42;13.48;;;4.50;;
75937;SDS011;64615;32.062;34.834;2022-12-07T15:43:10;12.00;;;4.10;;
75937;SDS011;64615;32.062;34.834;2022-12-07T15:45:56;13.55;;;4.20;;
75937;SDS011;64615;32.062;34.834;2022-12-07T15:48:22;10.68;;;3.85;;
75937;SDS011;64615;32.062;34.834;2022-12-07T15:50:48;11.75;;;4.45;;
75937;SDS011;64615;32.062;34.834;2022-12-07T15:53:13;14.88;;;4.60;;
75937;SDS011;64615;32.062;34.834;2022-12-07T15:55:39;13.50;;;4.13;;
75937;SDS011;64615;32.062;34.834;2022-12-07T15:58:05;8.75;;;3.80;;
75937;SDS011;64615;32.062;34.834;2022-12-07T16:00:31;9.88;;;4.10;;
75937;SDS011;64615;32.062;34.834;2022-12-07T16:02:58;8.65;;;4.13;;
75937;SDS011;64615;32.062;34.834;2022-12-07T16:05:23;12.80;;;3.85;;
75937;SDS011;64615;32.062;34.834;2022-12-07T16:07:49;10.88;;;3.88;;
75937;SDS011;64615;32.062;34.834;2022-12-07T16:10:15;10.10;;;4.00;;
75937;SDS011;64615;32.062;34.834;2022-12-07T16:12:41;8.63;;;3.63;;
75937;SDS011;64615;32.062;34.834;2022-12-07T16:15:07;14.95;;;4.40;;
75937;SDS011;64615;32.062;34.834;2022-12-07T16:17:33;22.65;;;5.50;;
75937;SDS011;64615;32.062;34.834;2022-12-07T16:19:58;19.67;;;4.97;;
75937;SDS011;64615;32.062;34.834;2022-12-07T16:22:24;21.02;;;4.80;;
75937;SDS011;64615;32.062;34.834;2022-12-07T16:24:50;21.90;;;5.43;;
75937;SDS011;64615;32.062;34.834;2022-12-07T16:27:15;13.18;;;5.18;;
75937;SDS011;64615;32.062;34.834;2022-12-07T16:29:41;23.67;;;5.15;;
75937;SDS011;64615;32.062;34.834;2022-12-07T16:32:07;17.50;;;4.72;;
75937;SDS011;64615;32.062;34.834;2022-12-07T16:34:32;18.52;;;4.97;;
75937;SDS011;64615;32.062;34.834;2022-12-07T16:36:58;19.02;;;4.80;;